Time;durP1;ratioP1;P1;durP2;ratioP2;P2;SDS_P1;SDS_P2;PMS_P1;PMS_P2;Temp;Humidity;BMP_temperature;BMP_pressure;BME280_temperature;BME280_humidity;BME280_pressure;Samples;Min_cycle;Max_cycle;Signal;HPM_P1;HPM_P2
2023/10/19 00:00:44;;;;;;;141.88;59.15;;;9.50;99.90;;;;;;5081602;28;20085;-82
2023/10/19 00:03:11;;;;;;;147.85;59.00;;;9.60;99.90;;;;;;5082917;28;20036;-83
2023/10/19 00:05:37;;;;;;;134.20;58.63;;;9.60;99.90;;;;;;5082389;28;20136;-82
2023/10/19 00:08:26;;;;;;;139.35;57.45;;;9.60;99.90;;;;;;5079616;28;20051;-82
2023/10/19 00:11:02;;;;;;;139.98;60.58;;;9.60;99.90;;;;;;5082919;28;20101;-82
2023/10/19 00:13:29;;;;;;;149.18;60.22;;;9.60;99.90;;;;;;5070970;28;20059;-83
2023/10/19 00:15:57;;;;;;;138.85;60.17;;;9.60;99.90;;;;;;5067694;28;20101;-82
2023/10/19 00:18:24;;;;;;;140.07;58.53;;;9.60;99.90;;;;;;5088783;28;20042;-83
2023/10/19 00:21:19;;;;;;;145.82;57.60;;;9.60;99.90;;;;;;5078723;28;20024;-82
2023/10/19 00:23:49;;;;;;;129.75;55.22;;;9.60;99.90;;;;;;5069567;28;20028;-82
2023/10/19 00:26:20;;;;;;;145.35;56.15;;;9.60;99.90;;;;;;5066574;28;20057;-82
2023/10/19 00:29:49;;;;;;;157.30;58.13;;;9.70;99.90;;;;;;5085972;28;20069;-82
2023/10/19 00:32:15;;;;;;;;;;;9.70;99.90;;;;;;5077798;28;20051;-82
2023/10/19 00:34:55;;;;;;;173.10;57.53;;;9.70;99.90;;;;;;5080544;28;19914;-82
2023/10/19 00:37:26;;;;;;;130.30;54.35;;;9.70;99.90;;;;;;5068485;28;20073;-82
2023/10/19 00:39:54;;;;;;;121.03;52.67;;;9.70;99.90;;;;;;5061393;28;20119;-82
2023/10/19 00:42:31;;;;;;;131.15;53.42;;;9.70;99.90;;;;;;5119783;27;20505;-84
2023/10/19 00:45:04;;;;;;;110.63;49.17;;;9.70;99.90;;;;;;5065577;28;20024;-82
2023/10/19 00:47:39;;;;;;;114.18;51.13;;;9.70;99.90;;;;;;5070933;28;20123;-82
2023/10/19 00:50:14;;;;;;;154.40;55.10;;;9.60;99.90;;;;;;5066980;28;20491;-83
2023/10/19 00:52:45;;;;;;;181.25;55.67;;;9.60;99.90;;;;;;5070080;28;20123;-82
2023/10/19 00:55:14;;;;;;;228.90;57.67;;;9.70;99.90;;;;;;5058745;28;20039;-82
2023/10/19 00:57:42;;;;;;;226.55;57.22;;;9.60;99.90;;;;;;5070692;28;20032;-82
2023/10/19 01:00:20;;;;;;;234.65;58.13;;;9.60;99.90;;;;;;5082429;28;20092;-83
2023/10/19 01:02:46;;;;;;;323.02;63.53;;;9.60;99.90;;;;;;5086518;28;20024;-82
2023/10/19 01:05:21;;;;;;;185.27;55.33;;;9.60;99.90;;;;;;5101191;28;20030;-82
2023/10/19 01:07:53;;;;;;;461.52;69.60;;;9.60;99.90;;;;;;5061354;28;20378;-82
2023/10/19 01:10:23;;;;;;;417.95;69.50;;;9.60;99.90;;;;;;5069381;28;20040;-83
2023/10/19 01:12:50;;;;;;;373.70;65.18;;;9.60;99.90;;;;;;5063740;28;20111;-82
2023/10/19 01:15:29;;;;;;;835.25;92.75;;;9.60;99.90;;;;;;5095350;28;20526;-82
2023/10/19 01:17:56;;;;;;;654.10;81.45;;;9.60;99.90;;;;;;5067451;28;20501;-82
2023/10/19 01:28:42;;;;;;;777.03;87.30;;;9.60;99.90;;;;;;5111992;27;20522;-82
2023/10/19 01:31:22;;;;;;;863.70;89.22;;;9.60;99.90;;;;;;5082026;28;20040;-82
2023/10/19 01:33:49;;;;;;;1173.45;108.45;;;9.60;99.90;;;;;;5077916;28;20020;-82
2023/10/19 01:36:24;;;;;;;591.28;73.53;;;9.50;99.90;;;;;;5078783;28;20028;-83
2023/10/19 01:39:30;;;;;;;879.90;85.65;;;9.50;99.90;;;;;;5091118;28;20429;-82
2023/10/19 01:41:57;;;;;;;553.97;73.30;;;9.60;99.90;;;;;;5078504;28;20077;-82
2023/10/19 01:44:25;;;;;;;595.13;77.35;;;9.60;99.90;;;;;;5068784;28;20679;-83
2023/10/19 01:46:51;;;;;;;662.53;78.10;;;9.60;99.90;;;;;;5079850;28;20077;-82
2023/10/19 01:49:28;;;;;;;1060.40;101.18;;;9.60;99.90;;;;;;5070040;28;20555;-82
2023/10/19 01:51:55;;;;;;;732.90;91.18;;;9.70;99.90;;;;;;5081439;28;20812;-82
2023/10/19 01:54:25;;;;;;;430.40;69.63;;;9.60;99.90;;;;;;5078652;28;20501;-82
2023/10/19 01:56:56;;;;;;;279.23;62.92;;;9.60;99.90;;;;;;5074930;28;20032;-82
2023/10/19 01:59:27;;;;;;;486.88;73.13;;;9.70;99.90;;;;;;5065818;28;20765;-82
2023/10/19 02:01:56;;;;;;;914.50;96.47;;;9.70;99.90;;;;;;5061527;28;20034;-82
2023/10/19 02:04:21;;;;;;;364.67;64.00;;;9.60;99.90;;;;;;5078013;28;20521;-82
2023/10/19 02:07:01;;;;;;;574.42;73.13;;;9.60;99.90;;;;;;5088134;28;20020;-82
2023/10/19 02:09:29;;;;;;;681.08;82.10;;;9.70;99.90;;;;;;5087222;28;20024;-82
2023/10/19 02:11:56;;;;;;;735.80;84.60;;;9.70;99.90;;;;;;5064913;28;20353;-82
2023/10/19 02:14:30;;;;;;;635.38;81.28;;;9.60;99.90;;;;;;5071208;28;20077;-82
2023/10/19 02:16:58;;;;;;;653.03;82.05;;;9.60;99.90;;;;;;5082749;28;20042;-82
2023/10/19 02:19:25;;;;;;;511.10;75.75;;;9.70;99.90;;;;;;5083084;28;20051;-82
2023/10/19 02:22:12;;;;;;;313.90;67.68;;;9.70;99.90;;;;;;5058199;28;20066;-82
2023/10/19 02:24:38;;;;;;;478.90;79.00;;;9.70;99.90;;;;;;5070427;28;20376;-82
2023/10/19 02:27:45;;;;;;;1030.18;104.85;;;9.70;99.90;;;;;;5079380;28;20445;-82
2023/10/19 02:30:11;;;;;;;486.52;75.13;;;9.70;99.90;;;;;;5077010;28;20111;-82
2023/10/19 02:32:37;;;;;;;687.72;89.63;;;9.70;99.90;;;;;;5064749;28;20047;-82
2023/10/19 02:35:04;;;;;;;743.30;92.63;;;9.70;99.90;;;;;;5075947;28;20040;-82
2023/10/19 02:37:30;;;;;;;569.13;79.93;;;9.70;99.90;;;;;;5087686;28;20784;-82
2023/10/19 02:39:57;;;;;;;541.55;80.72;;;9.70;99.90;;;;;;5064526;28;20035;-82
2023/10/19 02:42:23;;;;;;;797.58;94.10;;;9.70;99.90;;;;;;5070895;28;20144;-82
2023/10/19 02:44:50;;;;;;;758.80;91.65;;;9.70;99.90;;;;;;5082118;28;20524;-82
2023/10/19 02:47:17;;;;;;;619.72;86.22;;;9.70;99.90;;;;;;5071225;28;20034;-82
2023/10/19 02:49:44;;;;;;;639.70;87.70;;;9.70;99.90;;;;;;5075615;28;20755;-81
2023/10/19 02:52:12;;;;;;;706.13;93.25;;;9.70;99.90;;;;;;5086737;28;20069;-82
2023/10/19 02:54:39;;;;;;;549.25;84.35;;;9.70;99.90;;;;;;5077217;28;20036;-82
2023/10/19 02:57:09;;;;;;;493.65;78.50;;;9.80;99.90;;;;;;5085681;28;20031;-82
2023/10/19 02:59:36;;;;;;;640.33;86.97;;;9.80;99.90;;;;;;5073750;28;20040;-81
2023/10/19 03:02:17;;;;;;;627.78;86.82;;;9.80;99.90;;;;;;5103579;28;20387;-82
2023/10/19 03:04:43;;;;;;;594.08;89.55;;;9.80;99.90;;;;;;5114668;28;20085;-82
2023/10/19 03:07:12;;;;;;;147.07;56.78;;;9.80;99.90;;;;;;5081577;28;20036;-82
2023/10/19 03:09:48;;;;;;;203.27;60.63;;;9.90;99.90;;;;;;5079471;28;20020;-82
2023/10/19 03:12:14;;;;;;;167.55;56.03;;;10.00;99.90;;;;;;5077090;28;20643;-82
2023/10/19 03:14:41;;;;;;;178.25;57.42;;;10.00;99.90;;;;;;5081339;28;20023;-82
2023/10/19 03:17:08;;;;;;;142.30;52.08;;;10.10;99.90;;;;;;5078797;28;20113;-82
2023/10/19 03:19:34;;;;;;;214.15;56.22;;;10.20;99.90;;;;;;5075755;28;20039;-81
2023/10/19 03:22:00;;;;;;;186.68;53.42;;;10.20;99.90;;;;;;5100890;28;20024;-82
2023/10/19 03:24:35;;;;;;;212.57;56.90;;;10.30;99.90;;;;;;5059483;28;20024;-81
2023/10/19 03:27:08;;;;;;;159.63;52.63;;;10.40;99.90;;;;;;5071112;28;20090;-81
2023/10/19 03:29:38;;;;;;;283.60;60.22;;;10.40;99.90;;;;;;5087747;28;20031;-82
2023/10/19 03:32:05;;;;;;;227.30;55.33;;;10.50;99.90;;;;;;5065650;28;20077;-82
2023/10/19 03:34:32;;;;;;;251.13;57.00;;;10.50;99.90;;;;;;5088378;28;20035;-82
2023/10/19 03:37:12;;;;;;;178.25;53.85;;;10.50;99.90;;;;;;5057529;28;20052;-82
2023/10/19 03:39:38;;;;;;;231.65;58.13;;;10.50;99.90;;;;;;5088462;28;20850;-82
2023/10/19 03:42:08;;;;;;;207.32;55.63;;;10.60;99.90;;;;;;5059893;28;20024;-82
2023/10/19 03:47:11;;;;;;;219.25;57.05;;;10.60;99.90;;;;;;5081909;28;20027;-82
2023/10/19 03:49:39;;;;;;;301.85;61.90;;;10.70;99.90;;;;;;5076956;28;20111;-82
2023/10/19 03:52:20;;;;;;;209.35;55.92;;;10.70;99.90;;;;;;5084042;28;20043;-82
2023/10/19 03:54:47;;;;;;;150.57;49.40;;;10.80;99.90;;;;;;5076955;28;20064;-82
2023/10/19 03:57:22;;;;;;;178.45;51.40;;;10.80;99.90;;;;;;5064253;28;20036;-82
2023/10/19 03:59:57;;;;;;;172.65;50.95;;;10.90;99.90;;;;;;5082700;28;20039;-82
2023/10/19 04:03:24;;;;;;;176.13;52.10;;;11.00;99.90;;;;;;5066069;28;20035;-82
2023/10/19 04:05:51;;;;;;;170.95;51.22;;;11.00;99.90;;;;;;5077026;28;20115;-83
2023/10/19 04:08:22;;;;;;;167.85;50.15;;;11.10;99.90;;;;;;5073088;28;20039;-83
2023/10/19 04:11:08;;;;;;;170.80;51.28;;;11.10;99.90;;;;;;5078854;28;20028;-83
2023/10/19 04:13:36;;;;;;;138.00;46.95;;;11.20;99.90;;;;;;5089703;28;20031;-83
2023/10/19 04:16:03;;;;;;;130.68;41.83;;;11.20;99.90;;;;;;5078997;28;20024;-83
2023/10/19 04:18:28;;;;;;;126.88;43.20;;;11.20;99.90;;;;;;5075142;28;20027;-83
2023/10/19 04:23:21;;;;;;;120.90;42.78;;;11.40;99.90;;;;;;5083734;28;20027;-83
2023/10/19 04:25:47;;;;;;;124.05;41.03;;;11.50;99.90;;;;;;5083198;28;20028;-83
2023/10/19 04:28:14;;;;;;;121.18;44.25;;;11.60;99.90;;;;;;5068433;28;20061;-82
2023/10/19 04:30:40;;;;;;;100.60;38.22;;;11.70;99.90;;;;;;5082383;28;20126;-83
2023/10/19 04:33:16;;;;;;;128.85;42.40;;;11.60;99.90;;;;;;5079908;28;20167;-83
2023/10/19 04:35:42;;;;;;;132.95;40.55;;;11.60;99.90;;;;;;5064038;28;20036;-82
2023/10/19 04:38:07;;;;;;;191.38;41.97;;;11.60;99.90;;;;;;5091419;28;20842;-83
2023/10/19 04:40:33;;;;;;;650.38;71.55;;;11.60;99.90;;;;;;5070475;28;20034;-83
2023/10/19 04:43:05;;;;;;;593.20;67.80;;;11.60;99.90;;;;;;5062043;28;20032;-83
2023/10/19 04:45:31;;;;;;;664.55;67.93;;;11.50;99.90;;;;;;5081604;28;20534;-83
2023/10/19 04:48:15;;;;;;;666.28;68.53;;;11.50;99.90;;;;;;5066671;28;20119;-83
2023/10/19 04:50:41;;;;;;;248.05;43.38;;;11.50;99.90;;;;;;5087019;28;20065;-82
2023/10/19 04:53:07;;;;;;;327.00;45.58;;;11.50;99.90;;;;;;5060542;28;20036;-83
2023/10/19 04:55:33;;;;;;;844.60;73.28;;;11.50;99.90;;;;;;5086481;28;20034;-83
2023/10/19 04:57:59;;;;;;;1260.60;99.50;;;11.40;99.90;;;;;;5062169;28;20509;-83
2023/10/19 05:00:28;;;;;;;795.05;70.32;;;11.40;99.90;;;;;;5066415;28;20032;-84
2023/10/19 05:06:41;;;;;;;299.55;36.35;;;11.40;99.90;;;;;;5091021;28;20570;-83
2023/10/19 05:09:07;;;;;;;421.90;48.65;;;11.30;99.90;;;;;;5074487;28;20107;-83
2023/10/19 05:11:33;;;;;;;392.13;47.15;;;11.30;99.90;;;;;;5067653;28;20028;-83
2023/10/19 05:13:59;;;;;;;336.50;41.35;;;11.30;99.90;;;;;;5060196;28;20097;-83
2023/10/19 05:16:24;;;;;;;620.92;56.67;;;11.20;99.90;;;;;;5073440;28;20030;-83
2023/10/19 05:18:50;;;;;;;428.10;43.55;;;11.20;99.90;;;;;;5078376;28;20032;-83
2023/10/19 05:21:16;;;;;;;323.63;40.60;;;11.30;99.90;;;;;;5088932;28;20083;-83
2023/10/19 05:23:41;;;;;;;252.50;40.58;;;11.20;99.90;;;;;;5103664;28;20028;-83
2023/10/19 05:26:07;;;;;;;391.33;44.35;;;11.30;99.90;;;;;;5083859;28;20099;-83
2023/10/19 05:28:33;;;;;;;834.63;72.03;;;11.30;99.90;;;;;;5063578;28;20460;-83
2023/10/19 05:30:59;;;;;;;222.32;39.58;;;11.30;99.90;;;;;;5067382;28;20515;-83
2023/10/19 05:33:27;;;;;;;153.23;34.42;;;11.30;99.90;;;;;;5061261;28;20165;-84
2023/10/19 05:36:02;;;;;;;208.18;41.42;;;11.30;99.90;;;;;;5087594;28;20031;-83
2023/10/19 05:38:28;;;;;;;236.02;46.90;;;11.30;99.90;;;;;;5061228;28;20070;-83
2023/10/19 05:40:55;;;;;;;127.40;36.85;;;11.30;99.90;;;;;;5080022;28;20448;-83
2023/10/19 05:43:30;;;;;;;145.68;43.25;;;11.40;99.90;;;;;;5076836;28;20475;-83
2023/10/19 05:45:56;;;;;;;132.38;42.00;;;11.40;99.90;;;;;;5079561;28;21003;-83
2023/10/19 05:48:24;;;;;;;117.00;43.58;;;11.50;99.90;;;;;;5069831;28;20032;-83
2023/10/19 05:50:49;;;;;;;101.88;42.30;;;11.50;99.90;;;;;;5083440;28;20475;-83
2023/10/19 05:53:18;;;;;;;95.78;41.03;;;11.60;99.90;;;;;;5068821;28;20103;-83
2023/10/19 05:55:47;;;;;;;148.90;48.22;;;11.70;99.90;;;;;;5103463;28;20035;-84
2023/10/19 05:58:12;;;;;;;116.50;46.10;;;11.70;99.90;;;;;;5105445;28;20030;-84
2023/10/19 06:00:38;;;;;;;141.40;48.42;;;11.70;99.90;;;;;;5079642;28;20123;-83
2023/10/19 06:03:04;;;;;;;113.22;42.25;;;11.70;99.90;;;;;;5062057;28;20032;-84
2023/10/19 06:05:30;;;;;;;144.70;49.67;;;11.80;99.90;;;;;;5082517;28;20051;-83
2023/10/19 06:07:56;;;;;;;99.63;43.05;;;11.80;99.90;;;;;;5079913;28;20430;-84
2023/10/19 06:10:22;;;;;;;147.00;47.05;;;11.80;99.90;;;;;;5077127;28;20028;-83
2023/10/19 06:12:49;;;;;;;124.97;45.88;;;11.80;99.90;;;;;;5069783;28;20028;-84
2023/10/19 06:15:17;;;;;;;170.27;51.97;;;11.90;99.90;;;;;;5059541;28;20479;-84
2023/10/19 06:17:43;;;;;;;114.03;43.92;;;11.90;99.90;;;;;;5089047;28;20033;-83
2023/10/19 06:20:23;;;;;;;163.93;48.78;;;12.00;99.90;;;;;;5057729;28;20515;-84
2023/10/19 06:22:55;;;;;;;125.38;44.00;;;11.90;99.90;;;;;;5063574;28;20039;-84
2023/10/19 06:25:23;;;;;;;129.05;46.72;;;11.90;99.90;;;;;;5059995;28;20390;-84
2023/10/19 06:27:50;;;;;;;138.90;50.40;;;12.00;99.90;;;;;;5064539;28;20090;-83
2023/10/19 06:30:22;;;;;;;149.73;49.63;;;12.00;99.90;;;;;;5067995;28;20043;-84
2023/10/19 06:32:50;;;;;;;155.02;54.47;;;11.90;99.90;;;;;;5078905;28;20040;-83
2023/10/19 06:35:17;;;;;;;146.80;51.45;;;11.90;99.90;;;;;;5068290;28;20027;-84
2023/10/19 06:37:44;;;;;;;145.75;52.60;;;11.90;99.90;;;;;;5085184;28;20036;-84
2023/10/19 06:40:11;;;;;;;140.57;50.42;;;11.90;99.90;;;;;;5066735;28;20046;-84
2023/10/19 06:42:38;;;;;;;136.52;49.92;;;11.90;99.90;;;;;;5085991;28;20024;-84
2023/10/19 06:45:05;;;;;;;136.40;51.08;;;12.00;99.90;;;;;;5076921;28;20048;-84
2023/10/19 06:47:30;;;;;;;120.55;49.40;;;12.00;99.90;;;;;;5055467;28;20115;-84
2023/10/19 06:49:56;;;;;;;138.50;50.70;;;12.00;99.90;;;;;;5073405;28;20860;-84
2023/10/19 06:52:22;;;;;;;129.65;50.58;;;12.00;99.90;;;;;;5056793;28;20056;-84
2023/10/19 06:54:48;;;;;;;120.63;47.75;;;12.00;99.90;;;;;;5073036;28;20395;-84
2023/10/19 06:57:14;;;;;;;110.13;45.58;;;12.00;99.90;;;;;;5065547;28;20020;-85
2023/10/19 06:59:39;;;;;;;121.78;46.80;;;12.00;99.90;;;;;;5094529;28;20059;-84
2023/10/19 07:02:07;;;;;;;149.10;47.97;;;11.90;99.90;;;;;;5092661;28;20028;-84
2023/10/19 07:04:33;;;;;;;132.23;44.67;;;11.90;99.90;;;;;;5065620;28;20544;-84
2023/10/19 07:07:00;;;;;;;133.13;46.95;;;11.90;99.90;;;;;;5093729;28;20024;-84
2023/10/19 07:09:26;;;;;;;148.40;47.97;;;12.00;99.90;;;;;;5059568;28;20486;-84
2023/10/19 07:11:54;;;;;;;96.90;42.50;;;12.00;99.90;;;;;;5067065;28;20020;-85
2023/10/19 07:14:22;;;;;;;132.98;46.40;;;12.20;99.90;;;;;;5077848;28;20021;-84
2023/10/19 07:16:49;;;;;;;167.15;56.47;;;12.30;99.90;;;;;;5085479;28;20054;-84
2023/10/19 07:19:15;;;;;;;177.48;54.70;;;12.40;99.90;;;;;;5079130;28;20028;-84
2023/10/19 07:21:43;;;;;;;212.10;57.92;;;12.50;99.90;;;;;;5079946;28;20102;-84
2023/10/19 07:24:11;;;;;;;147.07;53.42;;;12.60;99.90;;;;;;5064796;28;20115;-85
2023/10/19 07:26:51;;;;;;;134.77;48.55;;;12.70;99.90;;;;;;5081661;28;20063;-84
2023/10/19 07:29:17;;;;;;;187.68;50.78;;;12.70;99.90;;;;;;5063566;28;20024;-84
2023/10/19 07:31:42;;;;;;;100.82;43.58;;;12.60;99.90;;;;;;5062911;28;20236;-85
2023/10/19 07:34:12;;;;;;;95.70;41.15;;;12.60;99.90;;;;;;5077002;28;20031;-84
2023/10/19 07:36:38;;;;;;;96.85;40.33;;;12.60;99.90;;;;;;5059163;28;20485;-84
2023/10/19 07:39:04;;;;;;;105.18;43.05;;;12.60;99.90;;;;;;5063045;28;20040;-85
2023/10/19 07:41:36;;;;;;;125.80;46.30;;;12.80;99.90;;;;;;5066125;28;20039;-84
2023/10/19 07:44:02;;;;;;;80.55;37.42;;;12.90;99.90;;;;;;5072027;28;20417;-84
2023/10/19 07:46:28;;;;;;;67.72;35.85;;;13.10;99.90;;;;;;5066915;28;20024;-85
2023/10/19 07:48:54;;;;;;;67.20;35.28;;;13.30;99.90;;;;;;5066332;28;20047;-84
2023/10/19 07:51:20;;;;;;;63.15;32.53;;;13.30;99.90;;;;;;5085379;28;20059;-84
2023/10/19 07:53:53;;;;;;;60.65;32.80;;;13.40;99.90;;;;;;5085283;28;20031;-84
2023/10/19 07:56:19;;;;;;;58.63;32.28;;;13.50;99.90;;;;;;5061928;28;20114;-85
2023/10/19 07:58:45;;;;;;;61.78;30.35;;;13.50;99.90;;;;;;5071496;28;20127;-84
2023/10/19 08:01:11;;;;;;;52.50;27.63;;;13.60;99.90;;;;;;5079430;28;20031;-84
2023/10/19 08:03:37;;;;;;;41.92;23.70;;;13.60;99.90;;;;;;5082032;28;20020;-85
2023/10/19 08:06:04;;;;;;;42.22;23.02;;;13.70;99.90;;;;;;5059788;28;20497;-84
2023/10/19 08:09:11;;;;;;;34.13;21.73;;;13.80;99.90;;;;;;5059949;28;20067;-85
2023/10/19 08:11:37;;;;;;;34.90;22.13;;;13.90;99.90;;;;;;5076494;28;20368;-84
2023/10/19 08:14:02;;;;;;;40.67;20.50;;;14.00;99.90;;;;;;5063865;28;20038;-85
2023/10/19 08:16:28;;;;;;;32.53;19.98;;;14.10;99.90;;;;;;5075819;28;20085;-85
2023/10/19 08:19:09;;;;;;;32.63;18.05;;;14.30;99.90;;;;;;5059984;28;20035;-85
2023/10/19 08:21:35;;;;;;;29.33;18.42;;;14.50;99.90;;;;;;5066072;28;20434;-85
2023/10/19 08:24:04;;;;;;;28.17;17.70;;;14.50;99.90;;;;;;5059816;28;20070;-84
2023/10/19 08:26:31;;;;;;;27.63;17.00;;;14.70;99.90;;;;;;5070035;28;20479;-85
2023/10/19 08:28:58;;;;;;;35.25;21.80;;;14.70;99.90;;;;;;5085860;28;20024;-85
2023/10/19 08:31:24;;;;;;;49.92;28.55;;;14.60;99.90;;;;;;5065602;28;20444;-85
2023/10/19 08:33:50;;;;;;;49.72;28.90;;;14.50;99.90;;;;;;5070440;28;20028;-84
2023/10/19 08:36:19;;;;;;;69.30;39.33;;;14.60;99.90;;;;;;5083026;28;20110;-85
2023/10/19 08:38:46;;;;;;;51.58;31.42;;;14.60;99.90;;;;;;5087384;28;20031;-85
2023/10/19 08:41:13;;;;;;;28.17;18.08;;;14.60;99.90;;;;;;5083555;28;20494;-85
2023/10/19 08:43:39;;;;;;;25.05;15.40;;;14.60;99.90;;;;;;5079984;28;20052;-85
2023/10/19 08:46:06;;;;;;;24.88;15.13;;;14.50;99.90;;;;;;5068992;28;20118;-85
2023/10/19 08:48:37;;;;;;;26.23;14.88;;;14.60;99.90;;;;;;5064875;28;20421;-85
2023/10/19 08:51:09;;;;;;;24.08;14.43;;;14.90;99.90;;;;;;5078549;28;20036;-85
2023/10/19 08:53:40;;;;;;;24.48;14.82;;;15.00;99.90;;;;;;5060853;28;20032;-85
2023/10/19 08:56:07;;;;;;;21.58;14.32;;;15.00;99.90;;;;;;5062921;28;20032;-85
2023/10/19 08:58:33;;;;;;;22.48;12.73;;;15.00;99.90;;;;;;5095820;28;20042;-85
2023/10/19 09:01:15;;;;;;;22.85;12.80;;;15.10;99.90;;;;;;5063226;28;20109;-85
2023/10/19 09:03:41;;;;;;;20.13;13.80;;;15.20;99.90;;;;;;5063384;28;20416;-84
2023/10/19 09:06:07;;;;;;;28.70;14.25;;;15.30;99.90;;;;;;5086046;28;20080;-85
2023/10/19 09:08:39;;;;;;;19.75;14.13;;;15.50;99.90;;;;;;5060464;28;20405;-85
2023/10/19 09:11:11;;;;;;;20.20;12.93;;;15.60;99.90;;;;;;5059637;28;20039;-85
2023/10/19 09:13:52;;;;;;;20.42;11.65;;;15.70;99.90;;;;;;5069777;28;20028;-83
2023/10/19 09:16:22;;;;;;;21.42;10.20;;;16.00;99.90;;;;;;5083819;28;20169;-83
2023/10/19 09:18:49;;;;;;;16.67;10.65;;;16.20;99.90;;;;;;5063777;28;20537;-84
2023/10/19 09:21:26;;;;;;;10.48;7.97;;;16.40;99.90;;;;;;5059647;28;20016;-83
2023/10/19 09:23:58;;;;;;;17.45;9.80;;;16.70;99.90;;;;;;5092994;28;20069;-85
2023/10/19 09:26:24;;;;;;;20.70;11.38;;;16.90;99.90;;;;;;5061827;28;20032;-83
2023/10/19 09:29:25;;;;;;;16.45;10.80;;;16.90;99.90;;;;;;5058627;28;20427;-84
2023/10/19 09:31:54;;;;;;;20.80;11.68;;;16.40;99.90;;;;;;5075841;28;20029;-84
2023/10/19 09:34:21;;;;;;;17.23;10.40;;;16.00;99.90;;;;;;5098263;28;20110;-85
2023/10/19 09:36:47;;;;;;;23.80;12.25;;;16.00;99.90;;;;;;5064993;28;20028;-85
2023/10/19 09:39:13;;;;;;;22.45;11.40;;;15.90;99.90;;;;;;5086468;28;20084;-84
2023/10/19 09:41:40;;;;;;;15.32;10.05;;;15.80;99.90;;;;;;5095966;28;20119;-85
2023/10/19 09:44:10;;;;;;;15.63;10.68;;;15.80;99.90;;;;;;5082017;28;20474;-85
2023/10/19 09:46:39;;;;;;;19.20;9.60;;;16.00;99.90;;;;;;5066968;28;20486;-85
2023/10/19 09:49:06;;;;;;;12.23;9.43;;;16.20;99.90;;;;;;5078091;28;20024;-85
2023/10/19 09:51:33;;;;;;;22.88;10.43;;;16.50;99.90;;;;;;5093783;28;20054;-84
2023/10/19 09:54:34;;;;;;;22.63;10.50;;;16.80;99.90;;;;;;5102744;28;20039;-84
2023/10/19 09:57:10;;;;;;;16.50;10.77;;;16.90;99.90;;;;;;5082525;28;20020;-85
2023/10/19 09:59:40;;;;;;;15.43;11.40;;;17.10;99.90;;;;;;5083811;28;20053;-84
2023/10/19 10:02:12;;;;;;;17.70;11.03;;;17.00;99.90;;;;;;5062463;28;20157;-85
2023/10/19 10:04:39;;;;;;;14.65;10.52;;;17.00;99.90;;;;;;5077025;28;20725;-85
2023/10/19 10:07:06;;;;;;;18.40;9.73;;;17.40;99.90;;;;;;5085455;28;20023;-84
2023/10/19 10:09:39;;;;;;;14.98;9.90;;;17.50;99.90;;;;;;5062040;28;20485;-85
2023/10/19 10:12:23;;;;;;;14.25;9.30;;;17.60;99.90;;;;;;5078252;28;20032;-85
2023/10/19 10:15:09;;;;;;;14.20;9.05;;;17.60;99.90;;;;;;5061840;28;20036;-84
2023/10/19 10:17:37;;;;;;;15.40;10.40;;;17.10;99.90;;;;;;5094979;28;20554;-84
2023/10/19 10:20:29;;;;;;;14.25;9.75;;;16.60;99.90;;;;;;5087025;28;20085;-85
2023/10/19 10:23:19;;;;;;;21.23;9.85;;;16.50;99.90;;;;;;5070954;28;20076;-84
2023/10/19 10:25:50;;;;;;;17.23;11.52;;;16.30;99.90;;;;;;5076726;28;20028;-85
2023/10/19 10:28:16;;;;;;;;;;;16.10;99.90;;;;;;5084178;28;20055;-84
2023/10/19 10:31:07;;;;;;;14.93;10.18;;;16.20;99.90;;;;;;5079173;28;19989;-84
2023/10/19 10:33:46;;;;;;;12.73;9.38;;;16.40;99.90;;;;;;5074135;28;20031;-84
2023/10/19 10:36:19;;;;;;;15.48;9.82;;;16.70;99.90;;;;;;5078805;28;20028;-85
2023/10/19 10:38:47;;;;;;;16.20;9.40;;;16.80;99.90;;;;;;5077681;28;20603;-84
2023/10/19 10:41:27;;;;;;;12.45;8.05;;;16.70;99.90;;;;;;5084502;28;20027;-85
2023/10/19 10:43:58;;;;;;;12.37;7.40;;;16.70;99.90;;;;;;5063675;28;20542;-84
2023/10/19 10:46:27;;;;;;;13.48;8.98;;;16.80;99.90;;;;;;5094403;28;20091;-84
2023/10/19 10:48:53;;;;;;;13.50;8.35;;;16.70;99.90;;;;;;5081138;28;20092;-84
2023/10/19 10:51:24;;;;;;;10.45;6.88;;;16.80;99.90;;;;;;5077967;28;20042;-85
2023/10/19 10:53:53;;;;;;;11.60;7.50;;;17.00;99.90;;;;;;5118510;28;20712;-84
2023/10/19 10:56:23;;;;;;;12.00;6.43;;;16.80;99.90;;;;;;5069159;28;20035;-84
2023/10/19 10:58:58;;;;;;;9.25;5.28;;;16.80;99.90;;;;;;5073648;28;20435;-84
2023/10/19 11:01:33;;;;;;;10.25;6.28;;;17.00;99.90;;;;;;5117546;28;20081;-84
2023/10/19 11:04:10;;;;;;;8.30;5.97;;;17.20;99.90;;;;;;5096461;28;20036;-84
2023/10/19 11:06:58;;;;;;;11.63;5.55;;;17.30;99.90;;;;;;5066909;28;20023;-83
2023/10/19 11:09:28;;;;;;;8.38;5.95;;;17.20;99.90;;;;;;5098976;28;20032;-84
2023/10/19 11:11:54;;;;;;;11.38;6.07;;;16.90;99.90;;;;;;5101600;28;20032;-84
2023/10/19 11:14:23;;;;;;;11.63;6.05;;;16.80;99.90;;;;;;5116196;27;20513;-84
2023/10/19 11:16:49;;;;;;;15.60;6.32;;;16.80;99.90;;;;;;5064786;28;20041;-84
2023/10/19 11:19:15;;;;;;;9.05;5.75;;;16.80;99.90;;;;;;5106004;28;20047;-83
2023/10/19 11:21:53;;;;;;;10.10;5.07;;;16.80;99.90;;;;;;5073053;28;20089;-84
2023/10/19 11:24:26;;;;;;;11.43;4.97;;;16.70;99.90;;;;;;5069485;28;20076;-84
2023/10/19 11:26:51;;;;;;;8.68;5.63;;;16.90;99.90;;;;;;5099823;28;20024;-82
2023/10/19 11:29:17;;;;;;;12.23;6.15;;;17.10;99.90;;;;;;5063773;28;20467;-84
2023/10/19 11:31:56;;;;;;;7.75;5.72;;;17.20;99.90;;;;;;5090224;28;20036;-83
2023/10/19 11:34:22;;;;;;;12.88;6.45;;;17.30;99.90;;;;;;5072790;28;20036;-83
2023/10/19 11:36:56;;;;;;;12.55;7.43;;;17.20;99.90;;;;;;5101894;28;20119;-83
2023/10/19 11:39:23;;;;;;;10.75;7.15;;;16.80;99.90;;;;;;5087057;28;20028;-84
2023/10/19 11:41:49;;;;;;;10.43;6.95;;;16.50;99.90;;;;;;5078119;28;20043;-84
2023/10/19 11:44:15;;;;;;;13.25;6.72;;;16.40;99.90;;;;;;5090093;28;20027;-83
2023/10/19 11:46:41;;;;;;;11.55;6.93;;;16.20;99.90;;;;;;5063354;28;20024;-83
2023/10/19 11:49:06;;;;;;;10.48;7.03;;;16.00;99.90;;;;;;5089454;28;20097;-83
2023/10/19 11:51:32;;;;;;;14.13;8.68;;;15.70;99.90;;;;;;5064353;28;20505;-84
2023/10/19 11:53:57;;;;;;;37.45;16.38;;;15.60;99.90;;;;;;5066998;28;20809;-83
2023/10/19 11:56:25;;;;;;;33.42;14.93;;;15.40;99.90;;;;;;5080060;28;20153;-83
2023/10/19 11:58:50;;;;;;;58.58;25.52;;;15.20;99.90;;;;;;5099051;28;20031;-84
2023/10/19 12:01:19;;;;;;;50.63;24.30;;;15.00;99.90;;;;;;5087822;28;20383;-84
2023/10/19 12:03:48;;;;;;;50.85;22.33;;;14.90;99.90;;;;;;5089918;28;20028;-83
2023/10/19 12:06:23;;;;;;;33.88;17.88;;;14.80;99.90;;;;;;5064835;28;20527;-83
2023/10/19 12:08:49;;;;;;;40.90;22.02;;;14.70;99.90;;;;;;5089985;28;20032;-84
2023/10/19 12:11:15;;;;;;;24.40;15.88;;;14.60;99.90;;;;;;5081247;28;20170;-83
2023/10/19 12:13:43;;;;;;;36.65;17.35;;;14.50;99.90;;;;;;5073081;28;20020;-84
2023/10/19 12:16:12;;;;;;;30.33;17.30;;;14.50;99.90;;;;;;5080824;28;20080;-83
2023/10/19 12:18:39;;;;;;;38.28;20.27;;;14.40;99.90;;;;;;5083390;28;20024;-84
2023/10/19 12:21:07;;;;;;;37.63;22.58;;;14.30;99.90;;;;;;5082410;28;20027;-83
2023/10/19 12:23:33;;;;;;;49.25;29.17;;;14.30;99.90;;;;;;5077672;28;20078;-84
2023/10/19 12:26:08;;;;;;;48.70;32.10;;;14.30;99.90;;;;;;5084795;28;20432;-84
2023/10/19 12:28:52;;;;;;;41.25;25.17;;;14.40;99.90;;;;;;5079486;28;20032;-84
2023/10/19 12:31:18;;;;;;;37.40;22.98;;;14.30;99.90;;;;;;5065376;28;20047;-84
2023/10/19 12:33:44;;;;;;;35.13;22.88;;;14.30;99.90;;;;;;5081006;28;20028;-83
2023/10/19 12:36:31;;;;;;;41.55;23.92;;;14.20;99.90;;;;;;5081705;28;20028;-83
2023/10/19 12:38:57;;;;;;;40.47;24.13;;;14.20;99.90;;;;;;5067018;28;20019;-83
2023/10/19 12:41:27;;;;;;;40.17;23.38;;;14.20;99.90;;;;;;5080400;28;20384;-84
2023/10/19 12:43:57;;;;;;;35.00;18.80;;;14.10;99.90;;;;;;5084389;28;20111;-83
2023/10/19 12:46:24;;;;;;;32.80;19.35;;;14.10;99.90;;;;;;5098317;28;20406;-83
2023/10/19 12:48:51;;;;;;;31.60;19.40;;;14.10;99.90;;;;;;5086295;28;20016;-83
2023/10/19 12:51:23;;;;;;;35.50;20.58;;;14.10;99.90;;;;;;5083046;28;20050;-83
2023/10/19 12:53:51;;;;;;;32.60;21.85;;;14.00;99.90;;;;;;5067348;28;20115;-84
2023/10/19 12:56:18;;;;;;;33.15;22.50;;;14.00;99.90;;;;;;5061016;28;20035;-84
2023/10/19 12:58:43;;;;;;;34.58;19.27;;;14.10;99.90;;;;;;5070310;28;20031;-84